sensor_id;sensor_type;location;lat;lon;timestamp;P1;durP1;ratioP1;P2;durP2;ratioP2
43823;SDS011;29470;53.550;9.926;2023-02-01T00:00:09;18.73;;;2.78;;
43823;SDS011;29470;53.550;9.926;2023-02-01T00:05:13;27.15;;;3.67;;
43823;SDS011;29470;53.550;9.926;2023-02-01T00:10:18;20.75;;;3.25;;
43823;SDS011;29470;53.550;9.926;2023-02-01T00:15:21;21.15;;;4.82;;
43823;SDS011;29470;53.550;9.926;2023-02-01T00:20:24;23.75;;;3.75;;
43823;SDS011;29470;53.550;9.926;2023-02-01T00:25:29;30.00;;;4.28;;
43823;SDS011;29470;53.550;9.926;2023-02-01T00:30:31;21.23;;;3.45;;
43823;SDS011;29470;53.550;9.926;2023-02-01T00:35:34;21.13;;;3.40;;
43823;SDS011;29470;53.550;9.926;2023-02-01T00:40:39;28.67;;;3.35;;
43823;SDS011;29470;53.550;9.926;2023-02-01T00:45:41;21.55;;;3.92;;
43823;SDS011;29470;53.550;9.926;2023-02-01T00:50:44;24.02;;;3.92;;
43823;SDS011;29470;53.550;9.926;2023-02-01T00:55:48;30.85;;;4.28;;
43823;SDS011;29470;53.550;9.926;2023-02-01T01:00:59;27.48;;;3.70;;
43823;SDS011;29470;53.550;9.926;2023-02-01T01:06:04;26.30;;;5.07;;
43823;SDS011;29470;53.550;9.926;2023-02-01T01:11:11;26.85;;;3.42;;
43823;SDS011;29470;53.550;9.926;2023-02-01T01:16:16;35.05;;;4.80;;
43823;SDS011;29470;53.550;9.926;2023-02-01T01:21:20;25.30;;;4.60;;
43823;SDS011;29470;53.550;9.926;2023-02-01T01:26:25;24.45;;;3.55;;
43823;SDS011;29470;53.550;9.926;2023-02-01T01:31:30;26.83;;;3.72;;
43823;SDS011;29470;53.550;9.926;2023-02-01T01:36:33;22.88;;;4.30;;
43823;SDS011;29470;53.550;9.926;2023-02-01T01:41:37;26.65;;;4.82;;
43823;SDS011;29470;53.550;9.926;2023-02-01T01:46:50;24.40;;;4.40;;
43823;SDS011;29470;53.550;9.926;2023-02-01T01:51:54;26.10;;;4.13;;
43823;SDS011;29470;53.550;9.926;2023-02-01T01:57:03;21.50;;;4.22;;
43823;SDS011;29470;53.550;9.926;2023-02-01T02:02:09;32.67;;;5.80;;
43823;SDS011;29470;53.550;9.926;2023-02-01T02:07:13;30.25;;;4.25;;
43823;SDS011;29470;53.550;9.926;2023-02-01T02:12:20;28.02;;;4.10;;
43823;SDS011;29470;53.550;9.926;2023-02-01T02:17:26;29.20;;;3.92;;
43823;SDS011;29470;53.550;9.926;2023-02-01T02:22:39;23.98;;;3.60;;
43823;SDS011;29470;53.550;9.926;2023-02-01T02:28:07;26.10;;;4.43;;
43823;SDS011;29470;53.550;9.926;2023-02-01T02:38:53;21.90;;;5.20;;
43823;SDS011;29470;53.550;9.926;2023-02-01T02:44:08;23.92;;;3.97;;
43823;SDS011;29470;53.550;9.926;2023-02-01T02:49:36;26.50;;;4.20;;
43823;SDS011;29470;53.550;9.926;2023-02-01T02:55:07;25.20;;;4.20;;
43823;SDS011;29470;53.550;9.926;2023-02-01T03:00:12;25.15;;;5.00;;
43823;SDS011;29470;53.550;9.926;2023-02-01T03:05:37;29.65;;;4.00;;
43823;SDS011;29470;53.550;9.926;2023-02-01T03:15:51;23.52;;;4.70;;
43823;SDS011;29470;53.550;9.926;2023-02-01T03:21:03;19.60;;;3.30;;
43823;SDS011;29470;53.550;9.926;2023-02-01T03:31:16;20.45;;;3.67;;
43823;SDS011;29470;53.550;9.926;2023-02-01T03:36:26;19.88;;;2.60;;
43823;SDS011;29470;53.550;9.926;2023-02-01T03:41:34;12.80;;;2.53;;
43823;SDS011;29470;53.550;9.926;2023-02-01T03:46:41;12.65;;;1.90;;
43823;SDS011;29470;53.550;9.926;2023-02-01T03:51:50;9.68;;;1.65;;
43823;SDS011;29470;53.550;9.926;2023-02-01T03:56:54;12.52;;;2.88;;
43823;SDS011;29470;53.550;9.926;2023-02-01T04:02:01;10.00;;;2.78;;
43823;SDS011;29470;53.550;9.926;2023-02-01T04:07:05;11.98;;;2.40;;
43823;SDS011;29470;53.550;9.926;2023-02-01T04:12:08;18.48;;;2.85;;
43823;SDS011;29470;53.550;9.926;2023-02-01T04:17:11;15.95;;;2.67;;
43823;SDS011;29470;53.550;9.926;2023-02-01T04:22:15;17.52;;;2.55;;
43823;SDS011;29470;53.550;9.926;2023-02-01T04:27:18;8.93;;;2.70;;
43823;SDS011;29470;53.550;9.926;2023-02-01T04:32:21;20.80;;;2.40;;
43823;SDS011;29470;53.550;9.926;2023-02-01T04:37:26;9.50;;;2.75;;
43823;SDS011;29470;53.550;9.926;2023-02-01T04:42:30;15.82;;;2.53;;
43823;SDS011;29470;53.550;9.926;2023-02-01T04:47:32;15.82;;;2.58;;
43823;SDS011;29470;53.550;9.926;2023-02-01T04:52:37;12.07;;;2.30;;
43823;SDS011;29470;53.550;9.926;2023-02-01T04:57:39;11.88;;;1.92;;
43823;SDS011;29470;53.550;9.926;2023-02-01T05:02:43;8.00;;;1.50;;
43823;SDS011;29470;53.550;9.926;2023-02-01T05:07:47;5.78;;;1.52;;
43823;SDS011;29470;53.550;9.926;2023-02-01T05:12:50;5.10;;;1.00;;
43823;SDS011;29470;53.550;9.926;2023-02-01T05:18:10;3.17;;;0.80;;
43823;SDS011;29470;53.550;9.926;2023-02-01T05:23:14;3.70;;;0.70;;
43823;SDS011;29470;53.550;9.926;2023-02-01T05:28:17;2.92;;;0.68;;
43823;SDS011;29470;53.550;9.926;2023-02-01T05:33:20;1.42;;;0.60;;
43823;SDS011;29470;53.550;9.926;2023-02-01T05:38:25;2.45;;;0.50;;
43823;SDS011;29470;53.550;9.926;2023-02-01T05:43:28;1.90;;;0.60;;
43823;SDS011;29470;53.550;9.926;2023-02-01T05:48:34;1.58;;;0.60;;
43823;SDS011;29470;53.550;9.926;2023-02-01T05:58:44;1.85;;;0.47;;
43823;SDS011;29470;53.550;9.926;2023-02-01T06:03:47;1.05;;;0.50;;
43823;SDS011;29470;53.550;9.926;2023-02-01T06:08:52;2.28;;;0.60;;
43823;SDS011;29470;53.550;9.926;2023-02-01T06:13:55;2.53;;;0.60;;
43823;SDS011;29470;53.550;9.926;2023-02-01T06:18:58;3.25;;;0.90;;
43823;SDS011;29470;53.550;9.926;2023-02-01T06:24:02;4.57;;;1.10;;
43823;SDS011;29470;53.550;9.926;2023-02-01T06:29:05;3.45;;;0.90;;
43823;SDS011;29470;53.550;9.926;2023-02-01T06:34:09;6.03;;;0.80;;
43823;SDS011;29470;53.550;9.926;2023-02-01T06:39:13;7.43;;;1.40;;
43823;SDS011;29470;53.550;9.926;2023-02-01T06:44:18;6.78;;;1.33;;
43823;SDS011;29470;53.550;9.926;2023-02-01T06:49:28;8.32;;;1.60;;
43823;SDS011;29470;53.550;9.926;2023-02-01T06:54:38;9.73;;;2.10;;
43823;SDS011;29470;53.550;9.926;2023-02-01T07:00:01;10.45;;;1.88;;
43823;SDS011;29470;53.550;9.926;2023-02-01T07:05:05;13.50;;;2.50;;
43823;SDS011;29470;53.550;9.926;2023-02-01T07:10:10;15.70;;;2.42;;
43823;SDS011;29470;53.550;9.926;2023-02-01T07:15:13;12.70;;;2.10;;
43823;SDS011;29470;53.550;9.926;2023-02-01T07:20:16;11.73;;;2.92;;
43823;SDS011;29470;53.550;9.926;2023-02-01T07:25:21;16.58;;;3.08;;
43823;SDS011;29470;53.550;9.926;2023-02-01T07:30:26;24.05;;;4.40;;
43823;SDS011;29470;53.550;9.926;2023-02-01T07:35:30;27.63;;;4.13;;
43823;SDS011;29470;53.550;9.926;2023-02-01T07:40:34;27.65;;;3.85;;
43823;SDS011;29470;53.550;9.926;2023-02-01T07:45:37;30.05;;;4.30;;
43823;SDS011;29470;53.550;9.926;2023-02-01T07:50:40;22.20;;;4.15;;
43823;SDS011;29470;53.550;9.926;2023-02-01T07:55:46;25.00;;;3.55;;
43823;SDS011;29470;53.550;9.926;2023-02-01T08:00:54;19.15;;;3.67;;
43823;SDS011;29470;53.550;9.926;2023-02-01T08:06:15;25.55;;;4.50;;
43823;SDS011;29470;53.550;9.926;2023-02-01T08:11:19;29.23;;;5.25;;
43823;SDS011;29470;53.550;9.926;2023-02-01T08:16:25;23.77;;;4.28;;
43823;SDS011;29470;53.550;9.926;2023-02-01T08:21:29;21.48;;;4.45;;
43823;SDS011;29470;53.550;9.926;2023-02-01T08:26:40;25.27;;;5.10;;
43823;SDS011;29470;53.550;9.926;2023-02-01T08:31:44;27.52;;;4.22;;
43823;SDS011;29470;53.550;9.926;2023-02-01T08:37:02;19.17;;;3.67;;
43823;SDS011;29470;53.550;9.926;2023-02-01T08:42:08;15.73;;;3.28;;
43823;SDS011;29470;53.550;9.926;2023-02-01T08:47:32;21.73;;;3.95;;
43823;SDS011;29470;53.550;9.926;2023-02-01T08:59:10;27.70;;;3.85;;
43823;SDS011;29470;53.550;9.926;2023-02-01T09:04:13;25.80;;;3.92;;
43823;SDS011;29470;53.550;9.926;2023-02-01T09:09:27;22.05;;;5.07;;
43823;SDS011;29470;53.550;9.926;2023-02-01T09:14:35;18.52;;;3.17;;
43823;SDS011;29470;53.550;9.926;2023-02-01T09:19:40;17.10;;;3.28;;
43823;SDS011;29470;53.550;9.926;2023-02-01T09:24:47;18.60;;;3.13;;
43823;SDS011;29470;53.550;9.926;2023-02-01T09:29:57;27.45;;;3.65;;
43823;SDS011;29470;53.550;9.926;2023-02-01T09:35:00;22.25;;;3.30;;
43823;SDS011;29470;53.550;9.926;2023-02-01T09:40:09;15.60;;;3.53;;
43823;SDS011;29470;53.550;9.926;2023-02-01T09:45:48;17.52;;;3.00;;
43823;SDS011;29470;53.550;9.926;2023-02-01T09:51:14;24.38;;;3.65;;
43823;SDS011;29470;53.550;9.926;2023-02-01T09:56:39;14.93;;;3.15;;
43823;SDS011;29470;53.550;9.926;2023-02-01T10:01:48;19.42;;;4.15;;
43823;SDS011;29470;53.550;9.926;2023-02-01T10:06:54;21.02;;;3.60;;
43823;SDS011;29470;53.550;9.926;2023-02-01T10:12:27;23.77;;;4.25;;
43823;SDS011;29470;53.550;9.926;2023-02-01T10:18:20;16.17;;;3.00;;
43823;SDS011;29470;53.550;9.926;2023-02-01T10:23:39;19.77;;;3.00;;
43823;SDS011;29470;53.550;9.926;2023-02-01T10:29:03;29.33;;;3.30;;
43823;SDS011;29470;53.550;9.926;2023-02-01T10:34:24;19.40;;;4.03;;
43823;SDS011;29470;53.550;9.926;2023-02-01T10:39:54;17.70;;;3.00;;
43823;SDS011;29470;53.550;9.926;2023-02-01T10:45:13;17.42;;;3.13;;
43823;SDS011;29470;53.550;9.926;2023-02-01T10:50:29;19.80;;;3.50;;
43823;SDS011;29470;53.550;9.926;2023-02-01T10:55:43;18.08;;;3.58;;
43823;SDS011;29470;53.550;9.926;2023-02-01T11:01:04;22.13;;;3.53;;
43823;SDS011;29470;53.550;9.926;2023-02-01T11:06:39;18.70;;;3.50;;
43823;SDS011;29470;53.550;9.926;2023-02-01T11:11:54;19.60;;;2.95;;
43823;SDS011;29470;53.550;9.926;2023-02-01T11:17:01;18.98;;;3.33;;
43823;SDS011;29470;53.550;9.926;2023-02-01T11:22:25;16.85;;;2.65;;
43823;SDS011;29470;53.550;9.926;2023-02-01T11:27:47;17.13;;;3.05;;
43823;SDS011;29470;53.550;9.926;2023-02-01T11:32:56;19.52;;;3.33;;
43823;SDS011;29470;53.550;9.926;2023-02-01T11:38:09;15.68;;;2.50;;
43823;SDS011;29470;53.550;9.926;2023-02-01T11:43:23;18.88;;;2.67;;
43823;SDS011;29470;53.550;9.926;2023-02-01T11:48:33;17.52;;;2.45;;
43823;SDS011;29470;53.550;9.926;2023-02-01T11:53:41;11.30;;;3.13;;
43823;SDS011;29470;53.550;9.926;2023-02-01T11:59:05;13.45;;;2.67;;
43823;SDS011;29470;53.550;9.926;2023-02-01T12:10:09;13.73;;;2.30;;
43823;SDS011;29470;53.550;9.926;2023-02-01T12:15:34;17.33;;;2.40;;
43823;SDS011;29470;53.550;9.926;2023-02-01T12:20:56;16.48;;;3.00;;
43823;SDS011;29470;53.550;9.926;2023-02-01T12:26:12;11.32;;;2.30;;
43823;SDS011;29470;53.550;9.926;2023-02-01T12:31:43;8.23;;;1.85;;
43823;SDS011;29470;53.550;9.926;2023-02-01T12:36:59;14.90;;;3.60;;
43823;SDS011;29470;53.550;9.926;2023-02-01T12:42:13;15.95;;;6.15;;
43823;SDS011;29470;53.550;9.926;2023-02-01T12:47:24;5.18;;;1.13;;
43823;SDS011;29470;53.550;9.926;2023-02-01T12:52:42;1.88;;;0.65;;
43823;SDS011;29470;53.550;9.926;2023-02-01T12:57:53;3.63;;;0.93;;
43823;SDS011;29470;53.550;9.926;2023-02-01T13:03:13;7.90;;;1.48;;
43823;SDS011;29470;53.550;9.926;2023-02-01T13:08:32;0.93;;;0.55;;
43823;SDS011;29470;53.550;9.926;2023-02-01T13:13:44;8.63;;;2.67;;
43823;SDS011;29470;53.550;9.926;2023-02-01T13:18:53;2.15;;;0.60;;
43823;SDS011;29470;53.550;9.926;2023-02-01T13:24:10;3.72;;;0.68;;
43823;SDS011;29470;53.550;9.926;2023-02-01T13:29:31;4.97;;;1.45;;
43823;SDS011;29470;53.550;9.926;2023-02-01T13:34:44;2.65;;;0.60;;
43823;SDS011;29470;53.550;9.926;2023-02-01T13:40:07;36.45;;;4.68;;
43823;SDS011;29470;53.550;9.926;2023-02-01T13:45:24;9.65;;;1.90;;
43823;SDS011;29470;53.550;9.926;2023-02-01T13:50:31;4.88;;;0.73;;
43823;SDS011;29470;53.550;9.926;2023-02-01T13:55:39;3.30;;;0.60;;
43823;SDS011;29470;53.550;9.926;2023-02-01T14:00:45;4.00;;;0.82;;
43823;SDS011;29470;53.550;9.926;2023-02-01T14:11:36;6.28;;;0.80;;
43823;SDS011;29470;53.550;9.926;2023-02-01T14:16:42;5.28;;;1.02;;
43823;SDS011;29470;53.550;9.926;2023-02-01T14:21:47;6.28;;;1.80;;
43823;SDS011;29470;53.550;9.926;2023-02-01T14:26:52;9.15;;;1.48;;
43823;SDS011;29470;53.550;9.926;2023-02-01T14:32:02;10.70;;;1.35;;
43823;SDS011;29470;53.550;9.926;2023-02-01T14:37:08;7.45;;;1.52;;
43823;SDS011;29470;53.550;9.926;2023-02-01T14:42:18;6.63;;;1.38;;
43823;SDS011;29470;53.550;9.926;2023-02-01T14:47:30;5.70;;;1.27;;
43823;SDS011;29470;53.550;9.926;2023-02-01T14:52:36;12.40;;;2.13;;
43823;SDS011;29470;53.550;9.926;2023-02-01T14:57:43;11.50;;;2.33;;
43823;SDS011;29470;53.550;9.926;2023-02-01T15:02:52;9.05;;;2.20;;
43823;SDS011;29470;53.550;9.926;2023-02-01T15:07:57;12.27;;;1.92;;
43823;SDS011;29470;53.550;9.926;2023-02-01T15:13:11;20.40;;;2.80;;
43823;SDS011;29470;53.550;9.926;2023-02-01T15:18:22;8.63;;;2.13;;
43823;SDS011;29470;53.550;9.926;2023-02-01T15:23:25;9.98;;;1.77;;
43823;SDS011;29470;53.550;9.926;2023-02-01T15:28:28;9.35;;;2.15;;
43823;SDS011;29470;53.550;9.926;2023-02-01T15:33:33;8.10;;;1.77;;
43823;SDS011;29470;53.550;9.926;2023-02-01T15:38:37;12.00;;;2.30;;
43823;SDS011;29470;53.550;9.926;2023-02-01T15:43:42;13.07;;;1.60;;
43823;SDS011;29470;53.550;9.926;2023-02-01T15:48:49;9.20;;;1.65;;
43823;SDS011;29470;53.550;9.926;2023-02-01T15:53:55;15.07;;;2.90;;
43823;SDS011;29470;53.550;9.926;2023-02-01T15:59:00;13.93;;;3.00;;
43823;SDS011;29470;53.550;9.926;2023-02-01T16:04:13;14.90;;;2.20;;
43823;SDS011;29470;53.550;9.926;2023-02-01T16:09:20;15.85;;;2.65;;
43823;SDS011;29470;53.550;9.926;2023-02-01T16:14:25;16.00;;;2.65;;
43823;SDS011;29470;53.550;9.926;2023-02-01T16:19:30;15.73;;;3.47;;
43823;SDS011;29470;53.550;9.926;2023-02-01T16:24:32;23.10;;;3.03;;
43823;SDS011;29470;53.550;9.926;2023-02-01T16:29:35;14.02;;;2.50;;
43823;SDS011;29470;53.550;9.926;2023-02-01T16:34:39;20.80;;;2.92;;
43823;SDS011;29470;53.550;9.926;2023-02-01T16:39:43;18.10;;;2.78;;
43823;SDS011;29470;53.550;9.926;2023-02-01T16:44:46;17.35;;;3.65;;
43823;SDS011;29470;53.550;9.926;2023-02-01T16:49:50;23.92;;;3.88;;
43823;SDS011;29470;53.550;9.926;2023-02-01T16:54:54;19.17;;;3.63;;
43823;SDS011;29470;53.550;9.926;2023-02-01T16:59:57;25.00;;;3.53;;
43823;SDS011;29470;53.550;9.926;2023-02-01T17:05:13;26.92;;;3.88;;
43823;SDS011;29470;53.550;9.926;2023-02-01T17:10:18;22.90;;;4.30;;
43823;SDS011;29470;53.550;9.926;2023-02-01T17:15:35;27.08;;;4.60;;
43823;SDS011;29470;53.550;9.926;2023-02-01T17:20:39;30.23;;;4.65;;
43823;SDS011;29470;53.550;9.926;2023-02-01T17:25:42;36.50;;;5.72;;
43823;SDS011;29470;53.550;9.926;2023-02-01T17:30:45;24.77;;;4.00;;
43823;SDS011;29470;53.550;9.926;2023-02-01T17:35:49;29.92;;;4.38;;
43823;SDS011;29470;53.550;9.926;2023-02-01T17:40:52;25.05;;;3.88;;
43823;SDS011;29470;53.550;9.926;2023-02-01T17:45:55;26.38;;;4.03;;
43823;SDS011;29470;53.550;9.926;2023-02-01T17:51:02;23.27;;;3.58;;
43823;SDS011;29470;53.550;9.926;2023-02-01T17:56:07;18.80;;;3.13;;
43823;SDS011;29470;53.550;9.926;2023-02-01T18:01:14;17.88;;;3.28;;
43823;SDS011;29470;53.550;9.926;2023-02-01T18:06:22;17.50;;;3.25;;
43823;SDS011;29470;53.550;9.926;2023-02-01T18:11:27;18.38;;;3.30;;
43823;SDS011;29470;53.550;9.926;2023-02-01T18:16:33;21.05;;;3.95;;
43823;SDS011;29470;53.550;9.926;2023-02-01T18:21:40;23.73;;;3.90;;
43823;SDS011;29470;53.550;9.926;2023-02-01T18:26:44;21.05;;;3.50;;
43823;SDS011;29470;53.550;9.926;2023-02-01T18:31:47;25.30;;;4.10;;
43823;SDS011;29470;53.550;9.926;2023-02-01T18:36:52;23.35;;;3.78;;
43823;SDS011;29470;53.550;9.926;2023-02-01T18:41:55;27.73;;;4.07;;
43823;SDS011;29470;53.550;9.926;2023-02-01T18:46:58;25.08;;;4.75;;
43823;SDS011;29470;53.550;9.926;2023-02-01T18:52:02;31.70;;;4.93;;
43823;SDS011;29470;53.550;9.926;2023-02-01T18:57:06;24.17;;;4.40;;
43823;SDS011;29470;53.550;9.926;2023-02-01T19:02:10;19.77;;;3.47;;
43823;SDS011;29470;53.550;9.926;2023-02-01T19:07:15;24.20;;;4.40;;
43823;SDS011;29470;53.550;9.926;2023-02-01T19:12:18;20.80;;;3.50;;
43823;SDS011;29470;53.550;9.926;2023-02-01T19:17:21;22.40;;;4.28;;
43823;SDS011;29470;53.550;9.926;2023-02-01T19:22:26;20.70;;;3.35;;
43823;SDS011;29470;53.550;9.926;2023-02-01T19:27:28;23.98;;;4.13;;
43823;SDS011;29470;53.550;9.926;2023-02-01T19:32:31;22.98;;;3.90;;
43823;SDS011;29470;53.550;9.926;2023-02-01T19:37:39;24.27;;;4.10;;
43823;SDS011;29470;53.550;9.926;2023-02-01T19:42:43;23.67;;;3.20;;
43823;SDS011;29470;53.550;9.926;2023-02-01T19:47:46;17.67;;;2.60;;
43823;SDS011;29470;53.550;9.926;2023-02-01T19:52:51;15.13;;;2.65;;
43823;SDS011;29470;53.550;9.926;2023-02-01T19:57:54;14.80;;;3.10;;
43823;SDS011;29470;53.550;9.926;2023-02-01T20:02:56;18.30;;;2.88;;
43823;SDS011;29470;53.550;9.926;2023-02-01T20:08:01;16.10;;;2.85;;
43823;SDS011;29470;53.550;9.926;2023-02-01T20:13:04;18.58;;;3.28;;
43823;SDS011;29470;53.550;9.926;2023-02-01T20:18:07;21.25;;;3.53;;
43823;SDS011;29470;53.550;9.926;2023-02-01T20:23:12;21.58;;;3.45;;
43823;SDS011;29470;53.550;9.926;2023-02-01T20:28:15;17.00;;;2.88;;
43823;SDS011;29470;53.550;9.926;2023-02-01T20:33:18;25.52;;;4.10;;
43823;SDS011;29470;53.550;9.926;2023-02-01T20:38:22;34.17;;;3.83;;
43823;SDS011;29470;53.550;9.926;2023-02-01T20:43:25;26.52;;;3.88;;
43823;SDS011;29470;53.550;9.926;2023-02-01T20:48:28;32.35;;;4.05;;
43823;SDS011;29470;53.550;9.926;2023-02-01T20:53:34;23.88;;;3.80;;
43823;SDS011;29470;53.550;9.926;2023-02-01T20:58:37;35.20;;;5.78;;
43823;SDS011;29470;53.550;9.926;2023-02-01T21:03:42;23.95;;;3.63;;
43823;SDS011;29470;53.550;9.926;2023-02-01T21:08:46;24.77;;;4.40;;
43823;SDS011;29470;53.550;9.926;2023-02-01T21:13:49;22.80;;;4.68;;
43823;SDS011;29470;53.550;9.926;2023-02-01T21:18:52;28.50;;;4.38;;
43823;SDS011;29470;53.550;9.926;2023-02-01T21:23:57;22.52;;;3.60;;
43823;SDS011;29470;53.550;9.926;2023-02-01T21:29:00;23.20;;;3.53;;
43823;SDS011;29470;53.550;9.926;2023-02-01T21:34:03;26.77;;;6.55;;
43823;SDS011;29470;53.550;9.926;2023-02-01T21:39:08;21.25;;;4.43;;
43823;SDS011;29470;53.550;9.926;2023-02-01T21:44:12;24.25;;;4.28;;
43823;SDS011;29470;53.550;9.926;2023-02-01T21:49:15;21.95;;;4.13;;
43823;SDS011;29470;53.550;9.926;2023-02-01T21:54:19;19.08;;;3.95;;
43823;SDS011;29470;53.550;9.926;2023-02-01T21:59:22;21.42;;;3.72;;
43823;SDS011;29470;53.550;9.926;2023-02-01T22:04:25;31.17;;;3.42;;
43823;SDS011;29470;53.550;9.926;2023-02-01T22:09:30;27.08;;;4.28;;
43823;SDS011;29470;53.550;9.926;2023-02-01T22:14:32;17.92;;;3.33;;
43823;SDS011;29470;53.550;9.926;2023-02-01T22:19:35;21.92;;;3.38;;
43823;SDS011;29470;53.550;9.926;2023-02-01T22:24:39;22.77;;;3.33;;
43823;SDS011;29470;53.550;9.926;2023-02-01T22:29:42;23.13;;;3.70;;
43823;SDS011;29470;53.550;9.926;2023-02-01T22:34:45;22.40;;;3.67;;
43823;SDS011;29470;53.550;9.926;2023-02-01T22:39:49;23.13;;;3.65;;
43823;SDS011;29470;53.550;9.926;2023-02-01T22:44:52;24.20;;;4.20;;
43823;SDS011;29470;53.550;9.926;2023-02-01T22:49:55;26.25;;;4.78;;
43823;SDS011;29470;53.550;9.926;2023-02-01T22:54:59;18.30;;;3.50;;
43823;SDS011;29470;53.550;9.926;2023-02-01T23:00:02;24.98;;;4.38;;
43823;SDS011;29470;53.550;9.926;2023-02-01T23:05:06;19.90;;;3.60;;
43823;SDS011;29470;53.550;9.926;2023-02-01T23:10:10;24.05;;;3.30;;
43823;SDS011;29470;53.550;9.926;2023-02-01T23:15:14;25.77;;;3.90;;
43823;SDS011;29470;53.550;9.926;2023-02-01T23:20:18;32.80;;;4.53;;
43823;SDS011;29470;53.550;9.926;2023-02-01T23:25:22;25.10;;;3.90;;
43823;SDS011;29470;53.550;9.926;2023-02-01T23:30:26;26.83;;;3.88;;
43823;SDS011;29470;53.550;9.926;2023-02-01T23:35:29;28.55;;;4.53;;
43823;SDS011;29470;53.550;9.926;2023-02-01T23:40:33;23.48;;;3.53;;
43823;SDS011;29470;53.550;9.926;2023-02-01T23:45:36;20.77;;;3.58;;
43823;SDS011;29470;53.550;9.926;2023-02-01T23:50:39;19.95;;;3.03;;
43823;SDS011;29470;53.550;9.926;2023-02-01T23:55:43;24.40;;;3.10;;
